Time;durP1;ratioP1;P1;durP2;ratioP2;P2;SDS_P1;SDS_P2;PMS_P1;PMS_P2;Temp;Humidity;BMP_temperature;BMP_pressure;BME280_temperature;BME280_humidity;BME280_pressure;Samples;Min_cycle;Max_cycle;Signal;HPM_P1;HPM_P2
2022/04/23 00:00:06;;;;;;;4.15;2.20;;;20.60;48.10;;;;;;5106203;27;44535;-62
2022/04/23 00:02:41;;;;;;;2.47;2.28;;;20.50;48.20;;;;;;5108084;27;44042;-61
2022/04/23 00:05:10;;;;;;;2.90;2.55;;;20.50;48.10;;;;;;5107938;27;43409;-61
2022/04/23 00:07:37;;;;;;;2.85;2.38;;;20.50;48.20;;;;;;5107149;27;44165;-60
2022/04/23 00:10:05;;;;;;;2.28;2.10;;;20.50;48.20;;;;;;5109073;27;43936;-61
2022/04/23 00:12:32;;;;;;;2.50;2.30;;;20.50;48.20;;;;;;5106251;27;43916;-60
2022/04/23 00:14:59;;;;;;;2.47;2.10;;;20.50;48.20;;;;;;5107825;27;43536;-61
2022/04/23 00:17:27;;;;;;;2.83;2.28;;;20.50;48.20;;;;;;5107441;27;43523;-60
2022/04/23 00:19:54;;;;;;;3.03;2.05;;;20.50;48.10;;;;;;5107682;27;44144;-60
2022/04/23 00:22:23;;;;;;;2.38;2.17;;;20.50;48.10;;;;;;5108180;27;43436;-60
2022/04/23 00:24:50;;;;;;;2.20;2.00;;;20.50;48.20;;;;;;5107870;27;44125;-61
2022/04/23 00:27:18;;;;;;;2.47;2.15;;;20.50;48.20;;;;;;5107506;27;43683;-61
2022/04/23 00:29:46;;;;;;;2.80;2.15;;;20.40;48.10;;;;;;5107351;27;44719;-60
2022/04/23 00:32:13;;;;;;;2.40;2.20;;;20.40;48.10;;;;;;5105561;27;43764;-61
2022/04/23 00:34:40;;;;;;;2.10;1.95;;;20.50;48.00;;;;;;5107624;27;43495;-61
2022/04/23 00:37:09;;;;;;;2.33;2.13;;;20.40;48.10;;;;;;5107565;27;43636;-61
2022/04/23 00:39:36;;;;;;;2.88;2.08;;;20.40;48.10;;;;;;5107208;27;44228;-61
2022/04/23 00:42:08;;;;;;;1.90;1.80;;;20.40;48.00;;;;;;5107320;27;43516;-60
2022/04/23 00:44:37;;;;;;;2.58;2.38;;;20.40;48.10;;;;;;5102235;27;43452;-61
2022/04/23 00:47:06;;;;;;;3.55;2.60;;;20.40;48.10;;;;;;5103738;27;43620;-61
2022/04/23 00:49:33;;;;;;;2.38;2.17;;;20.40;48.10;;;;;;5124536;27;45065;-60
2022/04/23 00:52:02;;;;;;;2.40;2.20;;;20.40;48.10;;;;;;5111114;27;43430;-61
2022/04/23 00:54:29;;;;;;;2.40;2.20;;;20.40;48.10;;;;;;5110923;27;43468;-61
2022/04/23 00:56:57;;;;;;;2.20;2.00;;;20.40;48.10;;;;;;5110797;27;43484;-60
2022/04/23 00:59:28;;;;;;;2.63;2.22;;;20.30;48.00;;;;;;5112159;27;45005;-61
2022/04/23 01:01:55;;;;;;;2.92;2.30;;;20.30;48.00;;;;;;5107854;27;43697;-60
2022/04/23 01:04:22;;;;;;;2.30;2.10;;;20.40;48.00;;;;;;5110853;27;43473;-61
2022/04/23 01:06:50;;;;;;;2.10;1.90;;;20.30;48.00;;;;;;5110632;27;43476;-60
2022/04/23 01:09:17;;;;;;;2.40;2.20;;;20.30;48.00;;;;;;5110554;27;44045;-61
2022/04/23 01:11:44;;;;;;;2.47;2.25;;;20.30;48.00;;;;;;5108532;27;44917;-61
2022/04/23 01:14:12;;;;;;;2.50;2.00;;;20.30;48.70;;;;;;5110851;27;43567;-61
2022/04/23 01:16:39;;;;;;;2.35;2.10;;;20.30;48.00;;;;;;5110351;27;43556;-60
2022/04/23 01:19:07;;;;;;;2.30;2.10;;;20.30;48.00;;;;;;5110823;27;44051;-61
2022/04/23 01:21:34;;;;;;;2.42;2.22;;;20.30;48.00;;;;;;5110274;27;43987;-61
2022/04/23 01:24:02;;;;;;;2.10;1.80;;;20.30;48.00;;;;;;5110375;27;43505;-61
2022/04/23 01:26:31;;;;;;;2.30;2.10;;;20.30;48.00;;;;;;5109353;27;43603;-60
2022/04/23 01:29:00;;;;;;;2.30;2.13;;;20.30;48.00;;;;;;5113539;27;44075;-60
2022/04/23 01:31:27;;;;;;;3.28;2.30;;;20.20;48.00;;;;;;5107808;27;44025;-60
2022/04/23 01:33:55;;;;;;;2.00;1.90;;;20.20;48.00;;;;;;5110468;27;43418;-61
2022/04/23 01:36:22;;;;;;;2.65;2.00;;;20.20;48.00;;;;;;5108198;27;43516;-62
2022/04/23 01:38:50;;;;;;;2.30;2.10;;;20.20;48.00;;;;;;5113626;27;44759;-61
2022/04/23 01:41:18;;;;;;;2.30;2.10;;;20.20;48.00;;;;;;5109900;27;44023;-61
2022/04/23 01:43:45;;;;;;;3.55;2.28;;;20.20;48.00;;;;;;5109812;27;43476;-61
2022/04/23 01:46:13;;;;;;;2.47;2.28;;;20.20;48.10;;;;;;5108933;27;43783;-61
2022/04/23 01:48:40;;;;;;;2.08;1.90;;;20.20;48.00;;;;;;5109984;27;44668;-60
2022/04/23 01:51:07;;;;;;;2.50;2.30;;;20.20;48.10;;;;;;5109887;27;43796;-61
2022/04/23 01:53:34;;;;;;;2.45;2.25;;;20.20;48.10;;;;;;5108811;27;43522;-59
2022/04/23 01:56:02;;;;;;;2.15;2.05;;;20.10;48.00;;;;;;5109808;27;43612;-61
2022/04/23 01:58:29;;;;;;;2.05;1.95;;;20.10;48.10;;;;;;5113437;27;44935;-61
2022/04/23 02:00:59;;;;;;;2.40;2.20;;;20.10;48.00;;;;;;5107052;27;43382;-63
2022/04/23 02:03:28;;;;;;;2.33;2.13;;;20.10;48.00;;;;;;5107001;27;43472;-61
2022/04/23 02:05:56;;;;;;;3.17;2.45;;;20.10;48.00;;;;;;5109631;27;43453;-60
2022/04/23 02:08:23;;;;;;;2.50;2.30;;;20.10;48.00;;;;;;5105961;27;44777;-60
2022/04/23 02:10:52;;;;;;;2.28;2.08;;;20.10;48.00;;;;;;5109553;27;43485;-60
2022/04/23 02:13:19;;;;;;;2.40;2.30;;;20.10;48.00;;;;;;5106922;27;43455;-61
2022/04/23 02:15:47;;;;;;;2.42;2.22;;;20.10;48.00;;;;;;5108596;27;43636;-60
2022/04/23 02:18:15;;;;;;;2.50;2.30;;;20.10;48.00;;;;;;5112310;27;44958;-60
2022/04/23 02:20:42;;;;;;;2.08;1.98;;;20.10;48.00;;;;;;5107946;27;43956;-61
2022/04/23 02:23:09;;;;;;;2.10;1.98;;;20.10;48.00;;;;;;5109517;27;43433;-61
2022/04/23 02:25:37;;;;;;;2.40;2.20;;;20.10;48.00;;;;;;5108855;27;44049;-60
2022/04/23 02:28:05;;;;;;;2.30;2.10;;;20.10;48.70;;;;;;5112238;27;45008;-62
2022/04/23 02:30:32;;;;;;;2.30;2.10;;;20.10;48.00;;;;;;5105356;27;43861;-61
2022/04/23 02:33:00;;;;;;;2.10;2.00;;;20.10;48.00;;;;;;5109253;27;43540;-62
2022/04/23 02:35:28;;;;;;;3.67;2.40;;;20.10;48.00;;;;;;5109382;27;43505;-61
2022/04/23 02:37:56;;;;;;;2.22;2.03;;;20.00;48.00;;;;;;5111588;27;44899;-60
2022/04/23 02:40:24;;;;;;;2.25;2.05;;;20.00;48.00;;;;;;5104109;27;43581;-60
2022/04/23 02:42:53;;;;;;;2.22;2.03;;;20.10;48.00;;;;;;5109018;27;43456;-61
2022/04/23 02:45:21;;;;;;;2.10;2.00;;;20.10;48.00;;;;;;5109004;27;43568;-62
2022/04/23 02:47:53;;;;;;;2.38;2.17;;;20.00;48.00;;;;;;5108150;27;44797;-62
2022/04/23 02:50:28;;;;;;;2.47;2.30;;;20.00;48.00;;;;;;5108579;27;43469;-60
2022/04/23 02:52:57;;;;;;;2.47;2.28;;;20.00;48.00;;;;;;5105868;27;43459;-60
2022/04/23 02:55:26;;;;;;;2.63;2.42;;;20.00;48.10;;;;;;5111492;27;43646;-60
2022/04/23 02:57:56;;;;;;;2.35;2.15;;;20.00;48.10;;;;;;5105691;27;46052;-61
2022/04/23 03:00:24;;;;;;;2.40;2.20;;;20.00;48.10;;;;;;5108914;27;43426;-60
2022/04/23 03:02:52;;;;;;;2.45;2.25;;;19.90;48.10;;;;;;5108756;27;43554;-60
2022/04/23 03:05:21;;;;;;;2.13;1.92;;;20.00;48.10;;;;;;5111772;27;43681;-60
2022/04/23 03:07:48;;;;;;;2.20;2.10;;;19.90;48.00;;;;;;5102852;27;44925;-60
2022/04/23 03:10:18;;;;;;;2.53;2.33;;;19.90;48.00;;;;;;5108532;27;44295;-61
2022/04/23 03:12:46;;;;;;;2.10;2.00;;;19.90;48.00;;;;;;5107970;27;43417;-61
2022/04/23 03:15:16;;;;;;;2.50;2.30;;;19.90;48.00;;;;;;5103831;27;43770;-61
2022/04/23 03:17:45;;;;;;;2.30;2.20;;;19.90;48.00;;;;;;5108197;27;43902;-61
2022/04/23 03:20:13;;;;;;;2.17;2.03;;;19.90;48.00;;;;;;5108366;27;43453;-60
2022/04/23 03:22:41;;;;;;;2.25;2.05;;;19.90;48.00;;;;;;5109067;27;43447;-61
2022/04/23 03:25:11;;;;;;;2.60;2.40;;;19.90;48.00;;;;;;5109040;27;43704;-60
2022/04/23 03:27:38;;;;;;;4.70;2.60;;;19.90;48.10;;;;;;5108483;27;44783;-60
2022/04/23 03:30:06;;;;;;;2.30;2.13;;;19.90;48.10;;;;;;5108215;27;43685;-60
2022/04/23 03:32:34;;;;;;;2.95;2.28;;;19.90;48.10;;;;;;5109377;27;43474;-62
2022/04/23 03:35:04;;;;;;;2.28;2.17;;;19.80;48.00;;;;;;5108436;27;43634;-61
2022/04/23 03:37:33;;;;;;;2.10;2.00;;;19.80;48.10;;;;;;5108355;27;43869;-60
2022/04/23 03:40:05;;;;;;;2.17;2.08;;;19.80;48.10;;;;;;5107752;27;43990;-61
2022/04/23 03:42:33;;;;;;;;;;;19.80;48.00;;;;;;5106658;27;43458;-60
2022/04/23 03:45:05;;;;;;;2.55;2.35;;;19.80;48.10;;;;;;5105401;27;43432;-61
2022/04/23 03:47:33;;;;;;;2.53;2.33;;;19.80;48.10;;;;;;5108749;27;45234;-61
2022/04/23 03:50:07;;;;;;;2.38;2.28;;;19.80;48.10;;;;;;5104222;27;43895;-61
2022/04/23 03:52:35;;;;;;;2.45;2.25;;;19.80;48.00;;;;;;5106210;27;43501;-60
2022/04/23 03:55:04;;;;;;;2.33;2.13;;;19.80;48.10;;;;;;5108124;27;43555;-60
2022/04/23 03:57:42;;;;;;;2.70;2.50;;;19.80;48.10;;;;;;5109038;27;44925;-61
2022/04/23 04:00:10;;;;;;;2.42;2.22;;;19.80;48.10;;;;;;5109402;27;43482;-62
2022/04/23 04:02:37;;;;;;;2.30;2.20;;;19.70;48.10;;;;;;5106401;27;43542;-60
2022/04/23 04:05:05;;;;;;;2.28;2.08;;;19.70;48.10;;;;;;5108072;27;43554;-61
2022/04/23 04:07:32;;;;;;;2.22;2.08;;;19.70;48.00;;;;;;5107878;27;44795;-61
2022/04/23 04:10:01;;;;;;;2.40;2.20;;;19.70;48.00;;;;;;5088648;27;44416;-61
2022/04/23 04:12:28;;;;;;;2.63;2.42;;;19.70;48.10;;;;;;5086159;27;43529;-60
2022/04/23 04:14:57;;;;;;;2.53;2.33;;;19.70;48.10;;;;;;5087582;27;43643;-60
2022/04/23 04:17:25;;;;;;;2.15;2.05;;;19.70;48.10;;;;;;5086950;27;44667;-61
2022/04/23 04:19:53;;;;;;;2.15;2.00;;;19.70;48.10;;;;;;5088766;27;43503;-61
2022/04/23 04:22:23;;;;;;;2.20;2.05;;;19.70;48.00;;;;;;5086786;27;43542;-61
2022/04/23 04:24:51;;;;;;;2.10;2.00;;;19.70;48.10;;;;;;5083108;27;43447;-60
2022/04/23 04:27:18;;;;;;;2.40;2.20;;;19.70;48.00;;;;;;5090621;27;43790;-60
2022/04/23 04:29:45;;;;;;;2.20;2.10;;;19.70;48.10;;;;;;5092384;27;43502;-60
2022/04/23 04:32:13;;;;;;;2.45;2.25;;;19.70;48.10;;;;;;5090683;27;43437;-61
2022/04/23 04:34:40;;;;;;;2.47;2.28;;;19.70;48.10;;;;;;5085515;27;43455;-61
2022/04/23 04:37:12;;;;;;;2.28;2.17;;;19.60;48.00;;;;;;5090511;27;43730;-61
2022/04/23 04:39:41;;;;;;;2.30;2.10;;;19.70;48.00;;;;;;5091145;27;43614;-61
2022/04/23 04:42:10;;;;;;;2.35;2.20;;;19.60;48.00;;;;;;5090600;27;43484;-61
2022/04/23 04:44:38;;;;;;;2.47;2.28;;;19.60;48.00;;;;;;5090529;27;43506;-60
2022/04/23 04:47:11;;;;;;;2.53;2.33;;;19.60;48.10;;;;;;5086526;27;44069;-61
2022/04/23 04:49:39;;;;;;;2.50;2.30;;;19.60;48.00;;;;;;5086975;27;43545;-61
2022/04/23 04:52:06;;;;;;;2.45;2.28;;;19.60;48.00;;;;;;5090710;27;43417;-61
2022/04/23 04:54:34;;;;;;;2.35;2.25;;;19.60;48.10;;;;;;5090434;27;43469;-61
2022/04/23 04:57:03;;;;;;;2.50;2.30;;;19.60;48.00;;;;;;5089718;27;43990;-61
2022/04/23 04:59:34;;;;;;;2.30;2.17;;;19.60;48.20;;;;;;5092122;27;43913;-61
2022/04/23 05:02:02;;;;;;;2.20;2.10;;;19.60;48.10;;;;;;5090159;27;43469;-60
2022/04/23 05:04:30;;;;;;;2.15;2.00;;;19.50;48.70;;;;;;5090239;27;43644;-60
2022/04/23 05:06:57;;;;;;;2.38;2.20;;;19.60;48.10;;;;;;5090395;27;44816;-61
2022/04/23 05:09:24;;;;;;;2.00;1.90;;;19.60;48.10;;;;;;5105731;27;44135;-61
2022/04/23 05:11:52;;;;;;;2.40;2.20;;;19.50;48.00;;;;;;5110494;27;43561;-61
2022/04/23 05:14:19;;;;;;;2.25;2.13;;;19.50;48.00;;;;;;5110440;27;43498;-61
2022/04/23 05:16:46;;;;;;;2.75;2.25;;;19.50;48.10;;;;;;5109938;27;45240;-61
2022/04/23 05:19:13;;;;;;;2.13;2.03;;;19.50;48.10;;;;;;5110590;27;43461;-61
2022/04/23 05:21:41;;;;;;;2.08;1.98;;;19.50;48.10;;;;;;5110085;27;44095;-61
2022/04/23 05:24:08;;;;;;;1.88;1.77;;;19.50;48.20;;;;;;5110591;27;43643;-61
2022/04/23 05:26:35;;;;;;;2.67;2.47;;;19.50;48.10;;;;;;5109700;27;44110;-60
2022/04/23 05:29:03;;;;;;;2.38;2.20;;;19.50;48.10;;;;;;5112993;27;44125;-61
2022/04/23 05:31:32;;;;;;;1.90;1.80;;;19.50;48.10;;;;;;5110381;27;43519;-61
2022/04/23 05:34:00;;;;;;;2.15;2.00;;;19.40;48.00;;;;;;5110413;27;43625;-62
2022/04/23 05:36:27;;;;;;;2.53;2.33;;;19.40;48.00;;;;;;5108083;27;43984;-60
2022/04/23 05:38:55;;;;;;;2.20;2.10;;;19.40;48.00;;;;;;5112083;27;44143;-60
2022/04/23 05:41:23;;;;;;;2.28;2.17;;;19.40;48.10;;;;;;5109583;27;43532;-62
2022/04/23 05:43:51;;;;;;;1.95;1.80;;;19.40;48.10;;;;;;5109964;27;43443;-60
2022/04/23 05:46:18;;;;;;;2.15;2.05;;;19.40;48.20;;;;;;5109110;27;45045;-61
2022/04/23 05:48:46;;;;;;;2.40;2.20;;;19.40;48.40;;;;;;5108518;27;43463;-61
2022/04/23 05:51:13;;;;;;;3.00;2.35;;;19.40;48.30;;;;;;5109602;27;43537;-61
2022/04/23 05:53:41;;;;;;;2.70;2.08;;;19.40;48.30;;;;;;5109637;27;43519;-60
2022/04/23 05:56:08;;;;;;;2.60;1.98;;;19.30;48.30;;;;;;5106930;27;45034;-61
2022/04/23 05:58:36;;;;;;;2.20;2.10;;;19.30;48.30;;;;;;5111799;27;43608;-60
2022/04/23 06:01:04;;;;;;;2.33;2.20;;;19.30;48.40;;;;;;5109415;27;43561;-61
2022/04/23 06:03:32;;;;;;;2.30;2.10;;;19.30;48.50;;;;;;5108938;27;43575;-61
2022/04/23 06:05:59;;;;;;;2.50;2.30;;;19.20;48.40;;;;;;5111539;27;45064;-61
2022/04/23 06:08:26;;;;;;;2.50;2.30;;;19.20;48.40;;;;;;5111345;27;44016;-60
2022/04/23 06:10:54;;;;;;;3.42;2.53;;;19.20;48.40;;;;;;5108125;27;43515;-60
2022/04/23 06:13:21;;;;;;;2.38;2.20;;;19.20;48.40;;;;;;5107404;27;43458;-61
2022/04/23 06:15:48;;;;;;;2.55;2.35;;;19.20;48.40;;;;;;5108950;27;44180;-62
2022/04/23 06:18:15;;;;;;;2.40;2.20;;;19.20;48.50;;;;;;5111780;27;43973;-60
2022/04/23 06:20:43;;;;;;;2.38;2.17;;;19.20;48.50;;;;;;5109580;27;43465;-60
2022/04/23 06:23:10;;;;;;;2.38;2.22;;;19.20;48.50;;;;;;5106828;27;43444;-60
2022/04/23 06:25:37;;;;;;;2.83;2.58;;;19.20;48.40;;;;;;5110212;27;44112;-60
2022/04/23 06:28:05;;;;;;;2.55;2.20;;;19.20;48.50;;;;;;5111568;27;43439;-61
2022/04/23 06:30:32;;;;;;;2.38;2.17;;;19.20;48.50;;;;;;5108708;27;43468;-61
2022/04/23 06:32:59;;;;;;;2.22;2.10;;;19.10;48.50;;;;;;5109426;27;43636;-61
2022/04/23 06:35:26;;;;;;;2.58;2.10;;;19.20;48.50;;;;;;5109621;27;44898;-61
2022/04/23 06:37:57;;;;;;;2.50;2.30;;;19.20;48.50;;;;;;5111875;27;43496;-62
2022/04/23 06:40:24;;;;;;;2.90;2.55;;;19.20;48.50;;;;;;5106648;27;43547;-60
2022/04/23 06:42:52;;;;;;;2.63;2.42;;;19.20;48.50;;;;;;5109093;27;43627;-61
2022/04/23 06:45:20;;;;;;;2.60;2.40;;;19.20;48.40;;;;;;5124987;27;44687;-60
2022/04/23 06:47:47;;;;;;;2.13;1.83;;;19.20;48.40;;;;;;5107311;27;44011;-61
2022/04/23 06:50:14;;;;;;;2.20;2.10;;;19.20;48.50;;;;;;5105461;27;43427;-60
2022/04/23 06:52:42;;;;;;;2.20;2.10;;;19.20;48.50;;;;;;5108773;27;43473;-60
2022/04/23 06:55:09;;;;;;;2.20;2.10;;;19.20;48.50;;;;;;5109718;27;44114;-61
2022/04/23 06:57:44;;;;;;;1.83;1.73;;;19.20;48.50;;;;;;5109778;27;44135;-60
2022/04/23 07:00:12;;;;;;;2.10;2.00;;;19.20;48.50;;;;;;5101990;27;43441;-60
2022/04/23 07:02:40;;;;;;;2.17;2.00;;;19.20;48.50;;;;;;5108676;27;43466;-61
2022/04/23 07:05:08;;;;;;;2.25;2.15;;;19.20;48.50;;;;;;5110920;27;44069;-60
2022/04/23 07:07:35;;;;;;;2.55;2.25;;;19.10;48.50;;;;;;5106619;27;43533;-59
2022/04/23 07:10:03;;;;;;;3.30;2.50;;;19.20;48.60;;;;;;5104051;27;43476;-61
2022/04/23 07:12:30;;;;;;;3.40;2.95;;;19.20;48.70;;;;;;5107208;27;43494;-61
2022/04/23 07:14:57;;;;;;;3.38;3.08;;;19.20;48.50;;;;;;5104910;27;44101;-61
2022/04/23 07:17:26;;;;;;;5.43;3.25;;;19.20;48.50;;;;;;5105488;27;43519;-60
2022/04/23 07:19:53;;;;;;;3.22;2.92;;;19.20;48.50;;;;;;5103195;27;43546;-60
2022/04/23 07:22:23;;;;;;;3.03;2.83;;;19.30;48.60;;;;;;5108807;27;43628;-60
2022/04/23 07:24:50;;;;;;;3.15;2.95;;;19.40;48.50;;;;;;5110935;27;43785;-61
2022/04/23 07:27:18;;;;;;;3.08;2.78;;;19.50;48.50;;;;;;5099315;27;43994;-60
2022/04/23 07:29:46;;;;;;;2.97;2.60;;;19.60;48.40;;;;;;5108500;27;43436;-60
2022/04/23 07:32:13;;;;;;;3.15;2.95;;;19.70;48.30;;;;;;5108002;27;43731;-60
2022/04/23 07:37:29;;;;;;;3.95;3.08;;;19.90;48.00;;;;;;5107059;27;44887;-60
2022/04/23 07:40:02;;;;;;;2.90;2.70;;;20.00;48.10;;;;;;5106961;27;43475;-59
2022/04/23 07:42:29;;;;;;;3.75;2.42;;;20.10;48.20;;;;;;5110305;27;43507;-60
2022/04/23 07:44:57;;;;;;;3.72;2.42;;;20.20;47.90;;;;;;5106237;27;45245;-61
2022/04/23 07:47:24;;;;;;;4.93;2.83;;;20.40;47.80;;;;;;5108779;27;43480;-61
2022/04/23 07:49:52;;;;;;;5.40;2.75;;;20.50;48.00;;;;;;5104285;27;43464;-61
2022/04/23 07:52:19;;;;;;;6.60;2.90;;;20.60;47.90;;;;;;5109814;27;43564;-61
2022/04/23 07:54:46;;;;;;;5.60;2.67;;;20.70;47.80;;;;;;5105246;27;44734;-62
2022/04/23 07:57:14;;;;;;;5.50;2.95;;;20.90;47.60;;;;;;5102525;27;43978;-60
2022/04/23 07:59:42;;;;;;;5.13;3.03;;;21.00;47.40;;;;;;5107243;27;43464;-59
2022/04/23 08:02:10;;;;;;;4.78;2.50;;;21.10;47.30;;;;;;5109347;27;43607;-60
2022/04/23 08:04:38;;;;;;;3.40;2.58;;;21.20;47.20;;;;;;5104157;27;44091;-59
2022/04/23 08:07:05;;;;;;;4.57;2.50;;;21.30;47.00;;;;;;5102253;27;43540;-60
2022/04/23 08:09:39;;;;;;;4.28;2.83;;;21.40;47.00;;;;;;5106044;27;43550;-59
2022/04/23 08:12:09;;;;;;;5.45;2.38;;;21.50;46.90;;;;;;5109317;27;43559;-60
2022/04/23 08:14:38;;;;;;;2.65;2.38;;;21.60;46.70;;;;;;5104537;27;45114;-61
2022/04/23 08:17:05;;;;;;;3.47;2.30;;;21.70;46.40;;;;;;5106997;27;43500;-60
2022/04/23 08:19:33;;;;;;;2.85;2.40;;;21.70;45.90;;;;;;5107417;27;44010;-61
2022/04/23 08:22:01;;;;;;;3.08;2.20;;;21.80;45.90;;;;;;5108861;27;43559;-61
2022/04/23 08:24:30;;;;;;;4.32;2.85;;;21.80;45.70;;;;;;5105972;27;44899;-61
2022/04/23 08:26:58;;;;;;;4.00;2.42;;;21.90;45.80;;;;;;5105424;27;45133;-61
2022/04/23 08:32:11;;;;;;;3.10;2.28;;;22.00;45.50;;;;;;5104219;27;43449;-60
2022/04/23 08:34:38;;;;;;;5.53;2.33;;;22.10;45.50;;;;;;5105945;27;43875;-61
2022/04/23 08:37:05;;;;;;;2.58;2.38;;;22.20;45.40;;;;;;5107666;27;43464;-61
2022/04/23 08:39:32;;;;;;;2.50;2.30;;;22.30;45.30;;;;;;5108649;27;43407;-61
2022/04/23 08:42:04;;;;;;;3.13;2.20;;;22.30;45.20;;;;;;5103719;27;43506;-60
2022/04/23 08:44:31;;;;;;;3.03;2.50;;;22.40;45.20;;;;;;5106817;27;43888;-61
2022/04/23 08:47:00;;;;;;;2.97;2.35;;;22.40;45.10;;;;;;5103943;27;43547;-61
2022/04/23 08:49:32;;;;;;;3.22;2.33;;;22.40;45.00;;;;;;5107328;27;43460;-61
2022/04/23 08:52:12;;;;;;;2.97;2.20;;;22.40;44.90;;;;;;5102876;27;43491;-61
2022/04/23 08:54:40;;;;;;;3.35;2.45;;;22.50;44.70;;;;;;5106641;27;45347;-60
2022/04/23 08:57:09;;;;;;;3.28;2.45;;;22.40;44.80;;;;;;5106719;27;44104;-61
2022/04/23 08:59:37;;;;;;;3.28;2.33;;;22.40;44.90;;;;;;5106529;27;43405;-60
2022/04/23 09:02:12;;;;;;;2.45;2.25;;;22.40;45.00;;;;;;5106607;27;43540;-61
2022/04/23 09:04:43;;;;;;;2.88;2.30;;;22.40;45.00;;;;;;5105910;27;43805;-60
2022/04/23 09:07:24;;;;;;;2.70;2.50;;;22.40;45.10;;;;;;5107168;27;45147;-61
2022/04/23 09:09:53;;;;;;;2.47;2.13;;;22.30;44.90;;;;;;5097190;27;43508;-61
2022/04/23 09:12:25;;;;;;;2.90;2.50;;;22.30;45.00;;;;;;5109002;27;43497;-60
2022/04/23 09:23:38;;;;;;;2.50;2.30;;;22.30;45.00;;;;;;5111380;27;44865;-61
2022/04/23 09:23:41;;;;;;;3.05;2.72;;;22.20;45.00;;;;;;5108357;27;43458;-60
2022/04/23 09:26:20;;;;;;;2.78;2.38;;;22.20;44.90;;;;;;5108283;27;44969;-61
2022/04/23 09:28:50;;;;;;;2.60;2.38;;;22.20;45.10;;;;;;5113009;27;44072;-61
2022/04/23 09:31:17;;;;;;;4.65;2.53;;;22.20;45.00;;;;;;5106560;27;43544;-61
2022/04/23 09:33:49;;;;;;;3.00;2.80;;;22.20;44.90;;;;;;5109918;27;43987;-61
2022/04/23 09:36:16;;;;;;;2.90;2.70;;;22.10;44.70;;;;;;5106196;27;45059;-61
2022/04/23 09:38:43;;;;;;;6.03;3.50;;;22.20;44.90;;;;;;5106832;27;44912;-61
2022/04/23 09:41:16;;;;;;;2.70;2.50;;;22.20;44.80;;;;;;5109053;27;43449;-60
2022/04/23 09:43:49;;;;;;;3.72;2.85;;;22.20;44.80;;;;;;5109586;27;43477;-61
2022/04/23 09:46:18;;;;;;;3.10;2.70;;;22.20;44.80;;;;;;5111919;27;43805;-60
2022/04/23 09:49:03;;;;;;;4.45;3.25;;;22.20;44.90;;;;;;5105555;27;44281;-60
2022/04/23 09:51:30;;;;;;;4.68;3.70;;;22.20;44.80;;;;;;5106232;27;43590;-61
2022/04/23 09:53:57;;;;;;;4.25;3.50;;;22.20;44.80;;;;;;5109234;27;43651;-61
2022/04/23 09:56:26;;;;;;;4.30;3.35;;;22.20;44.90;;;;;;5107432;27;44682;-61
2022/04/23 09:58:54;;;;;;;4.15;3.38;;;22.20;44.80;;;;;;5108982;27;43784;-61
2022/04/23 10:01:23;;;;;;;4.10;3.33;;;22.20;44.90;;;;;;5109170;27;43612;-61
2022/04/23 10:03:53;;;;;;;4.13;3.38;;;22.20;44.80;;;;;;5106104;27;43471;-60
2022/04/23 10:06:23;;;;;;;5.40;3.13;;;22.20;44.60;;;;;;5111574;27;44038;-61
2022/04/23 10:08:55;;;;;;;4.57;3.05;;;22.20;44.90;;;;;;5109064;27;43464;-61
2022/04/23 10:11:26;;;;;;;5.35;3.10;;;22.20;44.90;;;;;;5108746;27;43437;-61
2022/04/23 10:13:59;;;;;;;3.42;3.10;;;22.20;44.70;;;;;;5109222;27;43560;-61
2022/04/23 10:16:29;;;;;;;3.60;3.00;;;22.20;44.80;;;;;;5108849;27;44840;-61
2022/04/23 10:18:57;;;;;;;3.08;2.78;;;22.20;44.70;;;;;;5108723;27;43442;-61
2022/04/23 10:21:54;;;;;;;3.33;3.03;;;22.20;44.80;;;;;;5109075;27;43546;-61
2022/04/23 10:25:02;;;;;;;3.30;2.88;;;22.20;45.00;;;;;;5106880;27;43688;-62
2022/04/23 10:27:29;;;;;;;3.13;2.83;;;22.20;44.90;;;;;;5108502;27;43976;-61
2022/04/23 10:30:00;;;;;;;3.30;2.90;;;22.10;44.80;;;;;;5110942;27;43943;-60
2022/04/23 10:32:39;;;;;;;2.95;2.63;;;22.10;44.60;;;;;;5105447;27;43430;-61
2022/04/23 10:35:19;;;;;;;3.08;2.70;;;22.20;45.50;;;;;;5107312;27;43560;-60
2022/04/23 10:37:53;;;;;;;3.38;2.50;;;22.10;44.70;;;;;;5108588;27;44091;-62
2022/04/23 10:40:21;;;;;;;2.92;2.63;;;22.10;44.90;;;;;;5107131;27;43512;-60
2022/04/23 10:43:04;;;;;;;3.10;2.80;;;22.10;44.90;;;;;;5109292;27;43433;-59
2022/04/23 10:45:32;;;;;;;3.33;3.00;;;22.10;44.90;;;;;;5110217;27;43540;-59
2022/04/23 10:48:25;;;;;;;2.75;2.55;;;22.10;44.80;;;;;;5106594;27;43890;-60
2022/04/23 10:51:12;;;;;;;2.97;2.67;;;22.10;44.90;;;;;;5105937;27;43476;-61
2022/04/23 10:53:41;;;;;;;2.70;2.50;;;22.10;45.00;;;;;;5107010;27;43490;-61
2022/04/23 10:56:13;;;;;;;2.88;2.67;;;22.00;45.10;;;;;;5108452;27;43565;-61
2022/04/23 10:58:41;;;;;;;2.72;2.40;;;22.00;45.00;;;;;;5108074;27;44066;-61
2022/04/23 11:01:31;;;;;;;2.85;2.65;;;22.00;45.10;;;;;;5107708;27;43979;-60
2022/04/23 11:04:08;;;;;;;2.38;2.17;;;22.10;45.10;;;;;;5108900;27;43364;-61
2022/04/23 11:12:54;;;;;;;2.80;2.60;;;22.10;45.20;;;;;;5106357;27;43486;-61
2022/04/23 11:15:21;;;;;;;3.25;2.60;;;22.10;45.30;;;;;;5109615;27;43569;-60
2022/04/23 11:17:53;;;;;;;2.58;2.38;;;22.10;45.30;;;;;;5104526;27;43602;-61
2022/04/23 11:20:31;;;;;;;2.72;2.53;;;22.10;45.30;;;;;;5107229;27;44061;-61
2022/04/23 11:23:00;;;;;;;2.72;2.50;;;22.10;45.40;;;;;;5104681;27;43839;-61
2022/04/23 11:25:30;;;;;;;2.70;2.50;;;22.10;45.40;;;;;;5107075;27;43580;-61
2022/04/23 11:28:16;;;;;;;2.35;2.20;;;22.10;45.40;;;;;;5101040;27;43477;-61
2022/04/23 11:30:43;;;;;;;2.70;2.50;;;22.20;45.40;;;;;;5143365;27;43880;-61
2022/04/23 11:33:12;;;;;;;2.50;2.30;;;22.20;45.50;;;;;;5108129;27;44279;-61
2022/04/23 11:35:39;;;;;;;2.13;2.00;;;22.20;45.50;;;;;;5106730;27;43425;-61
2022/04/23 11:38:17;;;;;;;2.60;2.40;;;22.20;45.40;;;;;;5108364;27;43640;-61
2022/04/23 11:40:45;;;;;;;2.30;2.20;;;22.20;45.50;;;;;;5108234;27;45434;-60
2022/04/23 11:43:34;;;;;;;3.03;2.10;;;22.20;45.50;;;;;;5107630;27;43456;-62
2022/04/23 11:46:03;;;;;;;2.20;2.10;;;22.20;45.40;;;;;;5105579;27;43525;-60
2022/04/23 11:48:40;;;;;;;2.72;2.53;;;22.20;45.50;;;;;;5101002;27;43432;-61
2022/04/23 11:51:07;;;;;;;2.25;2.15;;;22.20;45.50;;;;;;5107962;27;44985;-61
2022/04/23 11:53:58;;;;;;;2.50;2.30;;;22.20;45.40;;;;;;5107393;27;43544;-61
2022/04/23 11:56:28;;;;;;;2.78;2.25;;;22.30;45.50;;;;;;5107307;27;43449;-61
2022/04/23 11:58:58;;;;;;;2.60;2.40;;;22.20;45.40;;;;;;5108167;27;43544;-62
2022/04/23 12:01:26;;;;;;;2.50;2.30;;;22.20;45.20;;;;;;5107396;27;44029;-61
2022/04/23 12:03:55;;;;;;;2.97;2.75;;;22.30;45.30;;;;;;5104704;27;43472;-61
2022/04/23 12:06:24;;;;;;;2.60;2.40;;;22.30;45.00;;;;;;5107456;27;43480;-61
2022/04/23 12:09:04;;;;;;;2.30;2.20;;;22.30;45.00;;;;;;5107718;27;43522;-62
2022/04/23 12:11:31;;;;;;;2.38;2.20;;;22.30;44.90;;;;;;5107066;27;44032;-61
2022/04/23 12:14:02;;;;;;;2.30;2.10;;;22.30;45.00;;;;;;5108894;27;43445;-60
2022/04/23 12:16:33;;;;;;;;;;;22.30;44.70;;;;;;5105158;27;43529;-61
2022/04/23 12:19:02;;;;;;;2.85;2.00;;;22.30;44.90;;;;;;5107756;27;43568;-60
2022/04/23 12:21:30;;;;;;;2.28;1.80;;;22.30;44.80;;;;;;5107202;27;44059;-61
2022/04/23 12:23:58;;;;;;;2.35;1.90;;;22.30;44.70;;;;;;5106002;27;43939;-61
2022/04/23 12:26:33;;;;;;;2.13;2.03;;;22.30;44.60;;;;;;5105690;27;43496;-61
2022/04/23 12:43:20;;;;;;;2.30;2.05;;;22.30;45.40;;;;;;5106108;27;44928;-61
2022/04/23 12:46:03;;;;;;;1.95;1.85;;;22.30;45.40;;;;;;5099396;27;43506;-61
2022/04/23 12:48:30;;;;;;;2.10;2.00;;;22.30;45.20;;;;;;5097694;27;43568;-61
2022/04/23 12:51:07;;;;;;;2.00;1.90;;;22.30;45.00;;;;;;5104023;27;43562;-61
2022/04/23 12:53:35;;;;;;;1.85;1.75;;;22.30;45.30;;;;;;5098624;27;44993;-61
2022/04/23 12:56:06;;;;;;;1.80;1.70;;;22.30;45.10;;;;;;5101246;27;44125;-61
2022/04/23 12:58:33;;;;;;;1.97;1.87;;;22.30;45.20;;;;;;5105904;27;43600;-61
2022/04/23 13:01:00;;;;;;;2.20;2.00;;;22.30;45.00;;;;;;5105324;27;43576;-61
2022/04/23 13:06:00;;;;;;;1.85;1.75;;;22.30;45.00;;;;;;5104007;27;43546;-61
2022/04/23 13:11:29;;;;;;;1.95;1.85;;;22.30;44.90;;;;;;5101290;27;43575;-62
2022/04/23 13:14:00;;;;;;;2.10;1.80;;;22.30;44.90;;;;;;5104107;27;43820;-61
2022/04/23 13:16:28;;;;;;;1.92;1.83;;;22.30;44.70;;;;;;5104404;27;44013;-61
2022/04/23 13:18:58;;;;;;;2.20;2.00;;;22.30;44.70;;;;;;5105909;27;43476;-61
2022/04/23 13:21:27;;;;;;;2.00;1.80;;;22.30;44.30;;;;;;5105348;27;43469;-61
2022/04/23 13:23:55;;;;;;;1.90;1.80;;;22.40;44.50;;;;;;5105198;27;45113;-60
2022/04/23 13:26:25;;;;;;;1.77;1.67;;;22.40;44.50;;;;;;5105404;27;43539;-61
2022/04/23 13:28:53;;;;;;;1.90;1.80;;;22.50;44.50;;;;;;5105274;27;43654;-60
2022/04/23 13:31:20;;;;;;;1.77;1.67;;;22.50;44.40;;;;;;5104345;27;43537;-60
2022/04/23 13:33:47;;;;;;;1.90;1.80;;;22.50;44.70;;;;;;5104285;27;44814;-61
2022/04/23 13:36:15;;;;;;;3.33;1.83;;;22.50;44.60;;;;;;5103532;27;43448;-60